KWRB/WRB METAR and TAF weather

Enter ICAO airport designator
Station Type Date Time Source
KWRB METAR 2020/09/19 01:56 UTC NOAA

KWRB 190156Z 00000KT 10SM SCT150 OVC200 23/21 A3000 RMK AO2A SLP159 T02260212


Station Type Date Time Source
KWRB Decoded METAR 2020/09/19 01:56 UTC NOAA

Warner Robins Air Force Base, GA, United States (KWRB) 32-38N 083-36W
Sep 18, 2020 - 09:56 PM EDT / 2020.09.19 0156 UTC
Wind: Calm:0
Visibility: 10 mile(s):0
Sky conditions: overcast
Temperature: 72.7 F (22.6 C)
Dew Point: 70.2 F (21.2 C)
Relative Humidity: 91%
Pressure (altimeter): 30 in. Hg (1015 hPa)
ob: KWRB 190156Z 00000KT 10SM SCT150 OVC200 23/21 A3000 RMK AO2A SLP159 T02260212
cycle: 2

Station Type Date Time Source
KWRB TAF 2020/09/18 21:15 UTC NOAA

TAF KWRB 182105Z 1821/2003 VRB06KT 9999 OVC040 QNH2990INS
BECMG 1907/1908 VRB06KT 9000 BR BKN035 QNH3000INS
BECMG 1915/1916 05010G18KT 9999 NSW SCT130 QNH3009INS
BECMG 2002/2003 05006KT 9999 FEW260 QNH3015INS TX26/1821Z TN20/1912Z

Example: see airport list